sensor_id;sensor_type;location;lat;lon;timestamp;temperature;humidity
20155;DHT22;10238;49.556;10.956;2022-09-09T00:00:08;12.90;99.90
20155;DHT22;10238;49.556;10.956;2022-09-09T00:03:05;12.80;99.90
20155;DHT22;10238;49.556;10.956;2022-09-09T00:06:06;12.80;99.90
20155;DHT22;10238;49.556;10.956;2022-09-09T00:09:10;12.80;99.90
20155;DHT22;10238;49.556;10.956;2022-09-09T00:12:06;12.80;99.90
20155;DHT22;10238;49.556;10.956;2022-09-09T00:15:07;12.70;99.90
20155;DHT22;10238;49.556;10.956;2022-09-09T00:18:07;12.70;99.90
20155;DHT22;10238;49.556;10.956;2022-09-09T00:21:06;12.60;99.90
20155;DHT22;10238;49.556;10.956;2022-09-09T00:24:07;12.60;99.90
20155;DHT22;10238;49.556;10.956;2022-09-09T00:27:06;12.60;99.90
20155;DHT22;10238;49.556;10.956;2022-09-09T00:30:14;12.60;99.90
20155;DHT22;10238;49.556;10.956;2022-09-09T00:33:11;12.60;99.90
20155;DHT22;10238;49.556;10.956;2022-09-09T00:36:04;12.50;99.90
20155;DHT22;10238;49.556;10.956;2022-09-09T00:39:05;12.50;99.90
20155;DHT22;10238;49.556;10.956;2022-09-09T00:42:09;12.50;99.90
20155;DHT22;10238;49.556;10.956;2022-09-09T00:45:17;12.50;99.90
20155;DHT22;10238;49.556;10.956;2022-09-09T00:48:18;12.50;99.90
20155;DHT22;10238;49.556;10.956;2022-09-09T00:51:16;12.50;99.90
20155;DHT22;10238;49.556;10.956;2022-09-09T00:54:23;12.50;99.90
20155;DHT22;10238;49.556;10.956;2022-09-09T00:57:27;12.40;99.90
20155;DHT22;10238;49.556;10.956;2022-09-09T01:00:22;12.40;99.90
20155;DHT22;10238;49.556;10.956;2022-09-09T01:03:21;12.40;99.90
20155;DHT22;10238;49.556;10.956;2022-09-09T01:06:22;12.30;99.90
20155;DHT22;10238;49.556;10.956;2022-09-09T01:09:23;12.40;99.90
20155;DHT22;10238;49.556;10.956;2022-09-09T01:12:25;12.40;99.90
20155;DHT22;10238;49.556;10.956;2022-09-09T01:15:26;12.30;99.90
20155;DHT22;10238;49.556;10.956;2022-09-09T01:18:20;12.30;99.90
20155;DHT22;10238;49.556;10.956;2022-09-09T01:21:22;12.30;99.90
20155;DHT22;10238;49.556;10.956;2022-09-09T01:24:29;12.30;99.90
20155;DHT22;10238;49.556;10.956;2022-09-09T01:27:27;12.30;99.90
20155;DHT22;10238;49.556;10.956;2022-09-09T01:30:18;12.20;99.90
20155;DHT22;10238;49.556;10.956;2022-09-09T01:33:13;12.20;99.90
20155;DHT22;10238;49.556;10.956;2022-09-09T01:36:11;12.20;99.90
20155;DHT22;10238;49.556;10.956;2022-09-09T01:39:08;12.20;99.90
20155;DHT22;10238;49.556;10.956;2022-09-09T01:41:59;12.20;99.90
20155;DHT22;10238;49.556;10.956;2022-09-09T01:44:50;12.20;99.90
20155;DHT22;10238;49.556;10.956;2022-09-09T01:47:43;12.20;99.90
20155;DHT22;10238;49.556;10.956;2022-09-09T01:50:34;12.20;99.90
20155;DHT22;10238;49.556;10.956;2022-09-09T01:53:25;12.20;99.90
20155;DHT22;10238;49.556;10.956;2022-09-09T01:56:25;12.20;99.90
20155;DHT22;10238;49.556;10.956;2022-09-09T01:59:47;12.20;99.90
20155;DHT22;10238;49.556;10.956;2022-09-09T02:02:52;12.20;99.90
20155;DHT22;10238;49.556;10.956;2022-09-09T02:05:54;12.20;99.90
20155;DHT22;10238;49.556;10.956;2022-09-09T02:08:52;12.20;99.90
20155;DHT22;10238;49.556;10.956;2022-09-09T02:11:47;12.30;99.90
20155;DHT22;10238;49.556;10.956;2022-09-09T02:14:48;12.30;99.90
20155;DHT22;10238;49.556;10.956;2022-09-09T02:17:46;12.30;99.90
20155;DHT22;10238;49.556;10.956;2022-09-09T02:20:41;12.30;99.90
20155;DHT22;10238;49.556;10.956;2022-09-09T02:23:34;12.30;99.90
20155;DHT22;10238;49.556;10.956;2022-09-09T02:26:26;12.40;99.90
20155;DHT22;10238;49.556;10.956;2022-09-09T02:29:21;12.30;99.90
20155;DHT22;10238;49.556;10.956;2022-09-09T02:32:19;12.30;99.90
20155;DHT22;10238;49.556;10.956;2022-09-09T02:35:14;12.30;99.90
20155;DHT22;10238;49.556;10.956;2022-09-09T02:38:09;12.30;99.90
20155;DHT22;10238;49.556;10.956;2022-09-09T02:41:02;12.30;99.90
20155;DHT22;10238;49.556;10.956;2022-09-09T02:43:52;12.40;99.90
20155;DHT22;10238;49.556;10.956;2022-09-09T02:50:18;12.40;99.90
20155;DHT22;10238;49.556;10.956;2022-09-09T02:53:16;12.40;99.90
20155;DHT22;10238;49.556;10.956;2022-09-09T02:56:15;12.40;99.90
20155;DHT22;10238;49.556;10.956;2022-09-09T02:59:09;12.40;99.90
20155;DHT22;10238;49.556;10.956;2022-09-09T03:02:00;12.40;99.90
20155;DHT22;10238;49.556;10.956;2022-09-09T03:04:52;12.50;99.90
20155;DHT22;10238;49.556;10.956;2022-09-09T03:07:43;12.50;99.90
20155;DHT22;10238;49.556;10.956;2022-09-09T03:10:35;12.50;99.90
20155;DHT22;10238;49.556;10.956;2022-09-09T03:13:25;12.40;99.90
20155;DHT22;10238;49.556;10.956;2022-09-09T03:16:17;12.50;99.90
20155;DHT22;10238;49.556;10.956;2022-09-09T03:19:07;12.50;99.90
20155;DHT22;10238;49.556;10.956;2022-09-09T03:21:57;12.50;99.90
20155;DHT22;10238;49.556;10.956;2022-09-09T03:24:49;12.50;99.90
20155;DHT22;10238;49.556;10.956;2022-09-09T03:27:39;12.50;99.90
20155;DHT22;10238;49.556;10.956;2022-09-09T03:30:29;12.60;99.90
20155;DHT22;10238;49.556;10.956;2022-09-09T03:33:18;12.60;99.90
20155;DHT22;10238;49.556;10.956;2022-09-09T03:36:08;12.60;99.90
20155;DHT22;10238;49.556;10.956;2022-09-09T03:38:58;12.60;99.90
20155;DHT22;10238;49.556;10.956;2022-09-09T03:41:50;12.60;99.90
20155;DHT22;10238;49.556;10.956;2022-09-09T03:44:39;12.60;99.90
20155;DHT22;10238;49.556;10.956;2022-09-09T03:47:29;12.60;99.90
20155;DHT22;10238;49.556;10.956;2022-09-09T03:50:19;12.60;99.90
20155;DHT22;10238;49.556;10.956;2022-09-09T03:53:08;12.70;99.90
20155;DHT22;10238;49.556;10.956;2022-09-09T03:55:58;12.60;99.90
20155;DHT22;10238;49.556;10.956;2022-09-09T03:58:51;12.70;99.90
20155;DHT22;10238;49.556;10.956;2022-09-09T04:01:42;12.70;99.90
20155;DHT22;10238;49.556;10.956;2022-09-09T04:04:33;12.70;99.90
20155;DHT22;10238;49.556;10.956;2022-09-09T04:07:23;12.70;99.90
20155;DHT22;10238;49.556;10.956;2022-09-09T04:10:13;12.70;99.90
20155;DHT22;10238;49.556;10.956;2022-09-09T04:13:06;12.80;99.90
20155;DHT22;10238;49.556;10.956;2022-09-09T04:15:59;12.80;99.90
20155;DHT22;10238;49.556;10.956;2022-09-09T04:18:50;12.80;99.90
20155;DHT22;10238;49.556;10.956;2022-09-09T04:21:41;12.80;99.90
20155;DHT22;10238;49.556;10.956;2022-09-09T04:24:31;12.80;99.90
20155;DHT22;10238;49.556;10.956;2022-09-09T04:27:22;12.90;99.90
20155;DHT22;10238;49.556;10.956;2022-09-09T04:30:13;12.90;99.90
20155;DHT22;10238;49.556;10.956;2022-09-09T04:33:05;12.80;99.90
20155;DHT22;10238;49.556;10.956;2022-09-09T04:35:56;12.90;99.90
20155;DHT22;10238;49.556;10.956;2022-09-09T04:38:46;12.90;99.90
20155;DHT22;10238;49.556;10.956;2022-09-09T04:41:37;13.00;99.90
20155;DHT22;10238;49.556;10.956;2022-09-09T04:44:28;13.00;99.90
20155;DHT22;10238;49.556;10.956;2022-09-09T04:47:18;13.00;99.90
20155;DHT22;10238;49.556;10.956;2022-09-09T04:50:10;13.00;99.90
20155;DHT22;10238;49.556;10.956;2022-09-09T04:53:00;12.90;99.90
20155;DHT22;10238;49.556;10.956;2022-09-09T04:55:51;12.90;99.90
20155;DHT22;10238;49.556;10.956;2022-09-09T04:58:41;13.00;99.90
20155;DHT22;10238;49.556;10.956;2022-09-09T05:01:31;13.00;99.90
20155;DHT22;10238;49.556;10.956;2022-09-09T05:04:22;13.00;99.90
20155;DHT22;10238;49.556;10.956;2022-09-09T05:07:13;13.10;99.90
20155;DHT22;10238;49.556;10.956;2022-09-09T05:10:04;13.10;99.90
20155;DHT22;10238;49.556;10.956;2022-09-09T05:12:54;13.10;99.90
20155;DHT22;10238;49.556;10.956;2022-09-09T05:15:51;13.00;99.90
20155;DHT22;10238;49.556;10.956;2022-09-09T05:18:42;13.10;99.90
20155;DHT22;10238;49.556;10.956;2022-09-09T05:21:34;13.10;99.90
20155;DHT22;10238;49.556;10.956;2022-09-09T05:24:25;13.10;99.90
20155;DHT22;10238;49.556;10.956;2022-09-09T05:27:14;13.10;99.90
20155;DHT22;10238;49.556;10.956;2022-09-09T05:30:06;13.10;99.90
20155;DHT22;10238;49.556;10.956;2022-09-09T05:32:57;13.20;99.90
20155;DHT22;10238;49.556;10.956;2022-09-09T05:35:47;13.20;99.90
20155;DHT22;10238;49.556;10.956;2022-09-09T05:38:36;13.20;99.90
20155;DHT22;10238;49.556;10.956;2022-09-09T05:41:28;13.30;99.90
20155;DHT22;10238;49.556;10.956;2022-09-09T05:44:21;13.30;99.90
20155;DHT22;10238;49.556;10.956;2022-09-09T05:47:12;13.40;99.90
20155;DHT22;10238;49.556;10.956;2022-09-09T05:50:03;13.40;99.90
20155;DHT22;10238;49.556;10.956;2022-09-09T05:52:54;13.50;99.90
20155;DHT22;10238;49.556;10.956;2022-09-09T05:55:44;13.50;99.90
20155;DHT22;10238;49.556;10.956;2022-09-09T05:58:37;13.50;99.90
20155;DHT22;10238;49.556;10.956;2022-09-09T06:01:29;13.60;99.90
20155;DHT22;10238;49.556;10.956;2022-09-09T06:04:20;13.60;99.90
20155;DHT22;10238;49.556;10.956;2022-09-09T06:07:12;13.70;99.90
20155;DHT22;10238;49.556;10.956;2022-09-09T06:10:03;13.70;99.90
20155;DHT22;10238;49.556;10.956;2022-09-09T06:12:54;13.80;99.90
20155;DHT22;10238;49.556;10.956;2022-09-09T06:15:50;13.80;99.90
20155;DHT22;10238;49.556;10.956;2022-09-09T06:18:41;13.90;99.90
20155;DHT22;10238;49.556;10.956;2022-09-09T06:21:33;14.00;99.90
20155;DHT22;10238;49.556;10.956;2022-09-09T06:24:25;14.00;99.90
20155;DHT22;10238;49.556;10.956;2022-09-09T06:27:15;14.10;99.90
20155;DHT22;10238;49.556;10.956;2022-09-09T06:30:06;14.20;99.90
20155;DHT22;10238;49.556;10.956;2022-09-09T06:33:06;14.30;99.90
20155;DHT22;10238;49.556;10.956;2022-09-09T06:35:58;14.40;99.90
20155;DHT22;10238;49.556;10.956;2022-09-09T06:38:48;14.40;99.90
20155;DHT22;10238;49.556;10.956;2022-09-09T06:41:39;14.50;99.90
20155;DHT22;10238;49.556;10.956;2022-09-09T06:44:30;14.50;99.90
20155;DHT22;10238;49.556;10.956;2022-09-09T06:47:22;14.60;99.90
20155;DHT22;10238;49.556;10.956;2022-09-09T06:50:18;14.70;99.90
20155;DHT22;10238;49.556;10.956;2022-09-09T06:53:09;14.80;99.90
20155;DHT22;10238;49.556;10.956;2022-09-09T06:56:01;14.90;99.90
20155;DHT22;10238;49.556;10.956;2022-09-09T06:58:53;15.10;99.90
20155;DHT22;10238;49.556;10.956;2022-09-09T07:01:44;15.20;99.90
20155;DHT22;10238;49.556;10.956;2022-09-09T07:04:39;15.40;99.90
20155;DHT22;10238;49.556;10.956;2022-09-09T07:07:31;15.50;99.90
20155;DHT22;10238;49.556;10.956;2022-09-09T07:10:21;15.60;99.90
20155;DHT22;10238;49.556;10.956;2022-09-09T07:13:13;15.60;99.90
20155;DHT22;10238;49.556;10.956;2022-09-09T07:16:04;15.60;99.90
20155;DHT22;10238;49.556;10.956;2022-09-09T07:18:55;15.70;99.90
20155;DHT22;10238;49.556;10.956;2022-09-09T07:21:46;15.70;99.90
20155;DHT22;10238;49.556;10.956;2022-09-09T07:24:40;15.80;99.90
20155;DHT22;10238;49.556;10.956;2022-09-09T07:27:30;15.80;99.90
20155;DHT22;10238;49.556;10.956;2022-09-09T07:30:19;16.00;99.90
20155;DHT22;10238;49.556;10.956;2022-09-09T07:33:14;16.00;99.90
20155;DHT22;10238;49.556;10.956;2022-09-09T07:36:07;16.20;99.90
20155;DHT22;10238;49.556;10.956;2022-09-09T07:39:00;16.30;99.90
20155;DHT22;10238;49.556;10.956;2022-09-09T07:41:53;16.40;99.90
20155;DHT22;10238;49.556;10.956;2022-09-09T07:44:43;16.40;99.90
20155;DHT22;10238;49.556;10.956;2022-09-09T07:47:32;16.60;99.90
20155;DHT22;10238;49.556;10.956;2022-09-09T07:50:23;16.70;99.90
20155;DHT22;10238;49.556;10.956;2022-09-09T07:53:13;17.00;99.90
20155;DHT22;10238;49.556;10.956;2022-09-09T07:56:04;17.20;99.90
20155;DHT22;10238;49.556;10.956;2022-09-09T07:58:57;17.20;99.90
20155;DHT22;10238;49.556;10.956;2022-09-09T08:01:50;17.30;99.90
20155;DHT22;10238;49.556;10.956;2022-09-09T08:04:42;17.30;99.90
20155;DHT22;10238;49.556;10.956;2022-09-09T08:07:33;17.40;99.90
20155;DHT22;10238;49.556;10.956;2022-09-09T08:10:23;17.70;99.90
20155;DHT22;10238;49.556;10.956;2022-09-09T08:13:13;18.00;99.90
20155;DHT22;10238;49.556;10.956;2022-09-09T08:16:09;18.20;99.90
20155;DHT22;10238;49.556;10.956;2022-09-09T08:19:05;18.20;99.90
20155;DHT22;10238;49.556;10.956;2022-09-09T08:21:56;18.40;99.90
20155;DHT22;10238;49.556;10.956;2022-09-09T08:24:45;18.60;99.90
20155;DHT22;10238;49.556;10.956;2022-09-09T08:27:36;18.80;99.90
20155;DHT22;10238;49.556;10.956;2022-09-09T08:30:26;19.10;99.90
20155;DHT22;10238;49.556;10.956;2022-09-09T08:33:18;19.30;99.90
20155;DHT22;10238;49.556;10.956;2022-09-09T08:36:10;19.50;99.90
20155;DHT22;10238;49.556;10.956;2022-09-09T08:39:05;19.80;99.90
20155;DHT22;10238;49.556;10.956;2022-09-09T08:42:12;20.10;99.90
20155;DHT22;10238;49.556;10.956;2022-09-09T08:45:31;20.20;99.90
20155;DHT22;10238;49.556;10.956;2022-09-09T08:48:40;20.50;99.90
20155;DHT22;10238;49.556;10.956;2022-09-09T08:51:40;20.80;99.90
20155;DHT22;10238;49.556;10.956;2022-09-09T08:54:33;21.10;99.90
20155;DHT22;10238;49.556;10.956;2022-09-09T08:57:39;21.30;99.90
20155;DHT22;10238;49.556;10.956;2022-09-09T09:00:38;21.70;99.90
20155;DHT22;10238;49.556;10.956;2022-09-09T09:03:50;22.00;99.90
20155;DHT22;10238;49.556;10.956;2022-09-09T09:06:50;22.40;99.90
20155;DHT22;10238;49.556;10.956;2022-09-09T09:09:54;22.70;99.90
20155;DHT22;10238;49.556;10.956;2022-09-09T09:12:50;23.00;99.90
20155;DHT22;10238;49.556;10.956;2022-09-09T09:15:41;23.20;99.90
20155;DHT22;10238;49.556;10.956;2022-09-09T09:18:33;23.50;99.90
20155;DHT22;10238;49.556;10.956;2022-09-09T09:21:32;23.80;99.90
20155;DHT22;10238;49.556;10.956;2022-09-09T09:24:39;24.10;99.90
20155;DHT22;10238;49.556;10.956;2022-09-09T09:27:39;24.30;99.90
20155;DHT22;10238;49.556;10.956;2022-09-09T09:30:38;24.40;99.90
20155;DHT22;10238;49.556;10.956;2022-09-09T09:33:35;24.70;99.90
20155;DHT22;10238;49.556;10.956;2022-09-09T09:36:40;24.70;99.90
20155;DHT22;10238;49.556;10.956;2022-09-09T09:39:34;25.00;99.90
20155;DHT22;10238;49.556;10.956;2022-09-09T09:42:49;25.40;99.90
20155;DHT22;10238;49.556;10.956;2022-09-09T09:45:43;25.80;99.90
20155;DHT22;10238;49.556;10.956;2022-09-09T09:49:01;25.90;99.90
20155;DHT22;10238;49.556;10.956;2022-09-09T09:52:00;26.10;99.90
20155;DHT22;10238;49.556;10.956;2022-09-09T09:54:51;26.30;99.90
20155;DHT22;10238;49.556;10.956;2022-09-09T09:57:42;26.50;99.90
20155;DHT22;10238;49.556;10.956;2022-09-09T10:00:33;26.80;99.90
20155;DHT22;10238;49.556;10.956;2022-09-09T10:03:26;27.00;98.90
20155;DHT22;10238;49.556;10.956;2022-09-09T10:06:29;27.20;99.50
20155;DHT22;10238;49.556;10.956;2022-09-09T10:09:24;27.30;99.90
20155;DHT22;10238;49.556;10.956;2022-09-09T10:12:23;27.40;97.90
20155;DHT22;10238;49.556;10.956;2022-09-09T10:15:38;27.60;97.70
20155;DHT22;10238;49.556;10.956;2022-09-09T10:18:53;27.80;99.30
20155;DHT22;10238;49.556;10.956;2022-09-09T10:22:04;27.90;96.70
20155;DHT22;10238;49.556;10.956;2022-09-09T10:25:20;27.70;96.80
20155;DHT22;10238;49.556;10.956;2022-09-09T10:28:30;27.90;99.40
20155;DHT22;10238;49.556;10.956;2022-09-09T10:31:40;28.10;96.40
20155;DHT22;10238;49.556;10.956;2022-09-09T10:34:55;28.30;94.40
20155;DHT22;10238;49.556;10.956;2022-09-09T10:38:01;28.20;95.20
20155;DHT22;10238;49.556;10.956;2022-09-09T10:41:23;28.00;96.40
20155;DHT22;10238;49.556;10.956;2022-09-09T10:47:50;27.80;96.30
20155;DHT22;10238;49.556;10.956;2022-09-09T10:50:56;27.80;96.40
20155;DHT22;10238;49.556;10.956;2022-09-09T10:54:11;27.70;95.10
20155;DHT22;10238;49.556;10.956;2022-09-09T10:57:16;27.70;95.00
20155;DHT22;10238;49.556;10.956;2022-09-09T11:00:18;27.70;95.20
20155;DHT22;10238;49.556;10.956;2022-09-09T11:03:18;27.60;93.50
20155;DHT22;10238;49.556;10.956;2022-09-09T11:06:14;27.60;94.90
20155;DHT22;10238;49.556;10.956;2022-09-09T11:09:19;27.40;94.00
20155;DHT22;10238;49.556;10.956;2022-09-09T11:12:23;27.50;93.60
20155;DHT22;10238;49.556;10.956;2022-09-09T11:15:19;27.70;94.70
20155;DHT22;10238;49.556;10.956;2022-09-09T11:18:19;28.00;93.70
20155;DHT22;10238;49.556;10.956;2022-09-09T11:21:17;27.90;93.60
20155;DHT22;10238;49.556;10.956;2022-09-09T11:24:18;27.80;93.90
20155;DHT22;10238;49.556;10.956;2022-09-09T11:27:17;27.70;91.90
20155;DHT22;10238;49.556;10.956;2022-09-09T11:30:18;27.60;90.90
20155;DHT22;10238;49.556;10.956;2022-09-09T11:33:42;27.60;93.80
20155;DHT22;10238;49.556;10.956;2022-09-09T11:37:13;27.80;93.00
20155;DHT22;10238;49.556;10.956;2022-09-09T11:40:19;27.80;93.90
20155;DHT22;10238;49.556;10.956;2022-09-09T11:43:18;28.00;93.00
20155;DHT22;10238;49.556;10.956;2022-09-09T11:46:14;28.40;92.80
20155;DHT22;10238;49.556;10.956;2022-09-09T11:49:06;28.30;90.80
20155;DHT22;10238;49.556;10.956;2022-09-09T11:52:23;28.40;91.20
20155;DHT22;10238;49.556;10.956;2022-09-09T11:55:25;28.40;92.00
20155;DHT22;10238;49.556;10.956;2022-09-09T11:58:22;28.20;91.10
20155;DHT22;10238;49.556;10.956;2022-09-09T12:01:36;28.00;89.00
20155;DHT22;10238;49.556;10.956;2022-09-09T12:04:37;28.10;89.10
20155;DHT22;10238;49.556;10.956;2022-09-09T12:07:34;28.20;87.30
20155;DHT22;10238;49.556;10.956;2022-09-09T12:10:31;27.90;85.00
20155;DHT22;10238;49.556;10.956;2022-09-09T12:13:29;27.50;88.20
20155;DHT22;10238;49.556;10.956;2022-09-09T12:16:30;27.20;84.90
20155;DHT22;10238;49.556;10.956;2022-09-09T12:19:23;27.20;89.50
20155;DHT22;10238;49.556;10.956;2022-09-09T12:22:22;27.60;90.20
20155;DHT22;10238;49.556;10.956;2022-09-09T12:25:47;27.70;87.60
20155;DHT22;10238;49.556;10.956;2022-09-09T12:28:59;27.90;86.00
20155;DHT22;10238;49.556;10.956;2022-09-09T12:32:02;28.10;88.80
20155;DHT22;10238;49.556;10.956;2022-09-09T12:34:58;28.10;88.30
20155;DHT22;10238;49.556;10.956;2022-09-09T12:37:54;28.10;83.70
20155;DHT22;10238;49.556;10.956;2022-09-09T12:40:54;28.00;83.50
20155;DHT22;10238;49.556;10.956;2022-09-09T12:43:45;28.00;88.50
20155;DHT22;10238;49.556;10.956;2022-09-09T12:46:41;28.30;87.70
20155;DHT22;10238;49.556;10.956;2022-09-09T12:49:35;28.40;88.00
20155;DHT22;10238;49.556;10.956;2022-09-09T12:52:32;28.40;87.10
20155;DHT22;10238;49.556;10.956;2022-09-09T12:55:28;28.20;88.80
20155;DHT22;10238;49.556;10.956;2022-09-09T12:58:21;27.70;90.90
20155;DHT22;10238;49.556;10.956;2022-09-09T13:01:21;27.10;92.40
20155;DHT22;10238;49.556;10.956;2022-09-09T13:04:21;26.50;94.10
20155;DHT22;10238;49.556;10.956;2022-09-09T13:10:04;25.40;96.40
20155;DHT22;10238;49.556;10.956;2022-09-09T13:12:55;25.00;96.80
20155;DHT22;10238;49.556;10.956;2022-09-09T13:15:50;24.70;97.90
20155;DHT22;10238;49.556;10.956;2022-09-09T13:18:41;24.30;98.70
20155;DHT22;10238;49.556;10.956;2022-09-09T13:21:33;24.00;99.90
20155;DHT22;10238;49.556;10.956;2022-09-09T13:24:30;23.80;99.90
20155;DHT22;10238;49.556;10.956;2022-09-09T13:27:26;23.80;99.90
20155;DHT22;10238;49.556;10.956;2022-09-09T13:30:21;23.90;99.90
20155;DHT22;10238;49.556;10.956;2022-09-09T13:33:22;24.00;99.90
20155;DHT22;10238;49.556;10.956;2022-09-09T13:36:12;23.80;99.90
20155;DHT22;10238;49.556;10.956;2022-09-09T13:39:04;23.60;99.90
20155;DHT22;10238;49.556;10.956;2022-09-09T13:41:53;23.60;99.90
20155;DHT22;10238;49.556;10.956;2022-09-09T13:44:42;23.60;99.90
20155;DHT22;10238;49.556;10.956;2022-09-09T13:47:35;23.40;99.90
20155;DHT22;10238;49.556;10.956;2022-09-09T13:50:27;23.30;99.90
20155;DHT22;10238;49.556;10.956;2022-09-09T13:53:17;23.10;99.90
20155;DHT22;10238;49.556;10.956;2022-09-09T13:56:07;23.10;99.90
20155;DHT22;10238;49.556;10.956;2022-09-09T13:58:57;23.00;99.90
20155;DHT22;10238;49.556;10.956;2022-09-09T14:01:47;23.00;99.90
20155;DHT22;10238;49.556;10.956;2022-09-09T14:04:36;22.90;99.90
20155;DHT22;10238;49.556;10.956;2022-09-09T14:07:28;22.80;99.90
20155;DHT22;10238;49.556;10.956;2022-09-09T14:10:17;22.80;99.90
20155;DHT22;10238;49.556;10.956;2022-09-09T14:13:08;22.70;99.90
20155;DHT22;10238;49.556;10.956;2022-09-09T14:15:58;22.70;99.90
20155;DHT22;10238;49.556;10.956;2022-09-09T14:18:47;22.70;99.90
20155;DHT22;10238;49.556;10.956;2022-09-09T14:21:36;22.70;99.90
20155;DHT22;10238;49.556;10.956;2022-09-09T14:24:26;22.70;99.90
20155;DHT22;10238;49.556;10.956;2022-09-09T14:27:16;22.70;99.90
20155;DHT22;10238;49.556;10.956;2022-09-09T14:30:08;22.70;99.90
20155;DHT22;10238;49.556;10.956;2022-09-09T14:32:58;22.70;99.90
20155;DHT22;10238;49.556;10.956;2022-09-09T14:35:47;22.60;99.90
20155;DHT22;10238;49.556;10.956;2022-09-09T14:38:43;22.60;99.90
20155;DHT22;10238;49.556;10.956;2022-09-09T14:41:32;22.60;99.90
20155;DHT22;10238;49.556;10.956;2022-09-09T14:44:22;22.50;99.90
20155;DHT22;10238;49.556;10.956;2022-09-09T14:47:13;22.50;99.90
20155;DHT22;10238;49.556;10.956;2022-09-09T14:50:02;22.50;99.90
20155;DHT22;10238;49.556;10.956;2022-09-09T14:52:52;22.50;99.90
20155;DHT22;10238;49.556;10.956;2022-09-09T14:55:41;22.50;99.90
20155;DHT22;10238;49.556;10.956;2022-09-09T14:58:30;22.40;99.90
20155;DHT22;10238;49.556;10.956;2022-09-09T15:01:20;22.40;99.90
20155;DHT22;10238;49.556;10.956;2022-09-09T15:04:12;22.40;99.90
20155;DHT22;10238;49.556;10.956;2022-09-09T15:07:02;22.20;99.90
20155;DHT22;10238;49.556;10.956;2022-09-09T15:09:51;22.20;99.90
20155;DHT22;10238;49.556;10.956;2022-09-09T15:12:40;22.00;99.90
20155;DHT22;10238;49.556;10.956;2022-09-09T15:15:30;21.90;99.90
20155;DHT22;10238;49.556;10.956;2022-09-09T15:18:22;21.80;99.90
20155;DHT22;10238;49.556;10.956;2022-09-09T15:21:14;21.60;99.90
20155;DHT22;10238;49.556;10.956;2022-09-09T15:24:05;21.50;99.90
20155;DHT22;10238;49.556;10.956;2022-09-09T15:26:55;21.50;99.90
20155;DHT22;10238;49.556;10.956;2022-09-09T15:29:45;21.50;99.90
20155;DHT22;10238;49.556;10.956;2022-09-09T15:32:34;21.40;99.90
20155;DHT22;10238;49.556;10.956;2022-09-09T15:35:23;21.40;99.90
20155;DHT22;10238;49.556;10.956;2022-09-09T15:38:14;21.40;99.90
20155;DHT22;10238;49.556;10.956;2022-09-09T15:41:04;21.40;99.90
20155;DHT22;10238;49.556;10.956;2022-09-09T15:43:55;21.30;99.90
20155;DHT22;10238;49.556;10.956;2022-09-09T15:46:46;21.30;99.90
20155;DHT22;10238;49.556;10.956;2022-09-09T15:49:38;21.40;99.90
20155;DHT22;10238;49.556;10.956;2022-09-09T15:52:27;21.50;99.90
20155;DHT22;10238;49.556;10.956;2022-09-09T15:55:18;21.50;99.90
20155;DHT22;10238;49.556;10.956;2022-09-09T15:58:07;21.40;99.90
20155;DHT22;10238;49.556;10.956;2022-09-09T16:01:01;21.40;99.90
20155;DHT22;10238;49.556;10.956;2022-09-09T16:03:51;21.50;99.90
20155;DHT22;10238;49.556;10.956;2022-09-09T16:06:41;21.50;99.90
20155;DHT22;10238;49.556;10.956;2022-09-09T16:09:31;21.50;99.90
20155;DHT22;10238;49.556;10.956;2022-09-09T16:12:22;21.50;99.90
20155;DHT22;10238;49.556;10.956;2022-09-09T16:15:12;21.50;99.90
20155;DHT22;10238;49.556;10.956;2022-09-09T16:18:33;21.40;99.90
20155;DHT22;10238;49.556;10.956;2022-09-09T16:21:25;21.40;99.90
20155;DHT22;10238;49.556;10.956;2022-09-09T16:24:18;21.30;99.90
20155;DHT22;10238;49.556;10.956;2022-09-09T16:27:08;21.30;99.90
20155;DHT22;10238;49.556;10.956;2022-09-09T16:30:00;21.20;99.90
20155;DHT22;10238;49.556;10.956;2022-09-09T16:32:49;21.10;99.90
20155;DHT22;10238;49.556;10.956;2022-09-09T16:35:39;21.00;99.90
20155;DHT22;10238;49.556;10.956;2022-09-09T16:38:38;20.90;99.90
20155;DHT22;10238;49.556;10.956;2022-09-09T16:41:29;20.80;99.90
20155;DHT22;10238;49.556;10.956;2022-09-09T16:44:18;20.60;99.90
20155;DHT22;10238;49.556;10.956;2022-09-09T16:47:09;20.60;99.90
20155;DHT22;10238;49.556;10.956;2022-09-09T16:49:58;20.40;99.90
20155;DHT22;10238;49.556;10.956;2022-09-09T16:52:48;20.30;99.90
20155;DHT22;10238;49.556;10.956;2022-09-09T16:55:40;20.20;99.90
20155;DHT22;10238;49.556;10.956;2022-09-09T16:58:30;20.00;99.90
20155;DHT22;10238;49.556;10.956;2022-09-09T17:01:19;19.90;99.90
20155;DHT22;10238;49.556;10.956;2022-09-09T17:04:11;19.80;99.90
20155;DHT22;10238;49.556;10.956;2022-09-09T17:07:03;19.70;99.90
20155;DHT22;10238;49.556;10.956;2022-09-09T17:09:52;19.60;99.90
20155;DHT22;10238;49.556;10.956;2022-09-09T17:12:41;19.50;99.90
20155;DHT22;10238;49.556;10.956;2022-09-09T17:15:30;19.40;99.90
20155;DHT22;10238;49.556;10.956;2022-09-09T17:18:20;19.30;99.90
20155;DHT22;10238;49.556;10.956;2022-09-09T17:21:13;19.20;99.90
20155;DHT22;10238;49.556;10.956;2022-09-09T17:24:03;19.10;99.90
20155;DHT22;10238;49.556;10.956;2022-09-09T17:26:53;19.00;99.90
20155;DHT22;10238;49.556;10.956;2022-09-09T17:29:42;19.00;99.90
20155;DHT22;10238;49.556;10.956;2022-09-09T17:32:32;18.90;99.90
20155;DHT22;10238;49.556;10.956;2022-09-09T17:35:23;18.80;99.90
20155;DHT22;10238;49.556;10.956;2022-09-09T17:38:13;18.70;99.90
20155;DHT22;10238;49.556;10.956;2022-09-09T17:41:04;18.70;99.90
20155;DHT22;10238;49.556;10.956;2022-09-09T17:43:55;18.60;99.90
20155;DHT22;10238;49.556;10.956;2022-09-09T17:46:46;18.50;99.90
20155;DHT22;10238;49.556;10.956;2022-09-09T17:49:43;18.40;99.90
20155;DHT22;10238;49.556;10.956;2022-09-09T17:52:32;18.30;99.90
20155;DHT22;10238;49.556;10.956;2022-09-09T17:55:24;18.20;99.90
20155;DHT22;10238;49.556;10.956;2022-09-09T17:58:13;18.10;99.90
20155;DHT22;10238;49.556;10.956;2022-09-09T18:01:04;18.00;99.90
20155;DHT22;10238;49.556;10.956;2022-09-09T18:03:55;18.00;99.90
20155;DHT22;10238;49.556;10.956;2022-09-09T18:06:49;17.90;99.90
20155;DHT22;10238;49.556;10.956;2022-09-09T18:09:44;17.90;99.90
20155;DHT22;10238;49.556;10.956;2022-09-09T18:12:38;17.80;99.90
20155;DHT22;10238;49.556;10.956;2022-09-09T18:15:29;17.70;99.90